sensor_id;sensor_type;location;lat;lon;timestamp;P1;durP1;ratioP1;P2;durP2;ratioP2
61477;SDS011;47345;52.334;10.392;2023-05-16T00:01:09;5.00;;;3.70;;
61477;SDS011;47345;52.334;10.392;2023-05-16T00:03:40;6.00;;;4.30;;
61477;SDS011;47345;52.334;10.392;2023-05-16T00:06:11;4.90;;;3.90;;
61477;SDS011;47345;52.334;10.392;2023-05-16T00:08:42;5.50;;;3.80;;
61477;SDS011;47345;52.334;10.392;2023-05-16T00:11:13;5.90;;;3.90;;
61477;SDS011;47345;52.334;10.392;2023-05-16T00:13:44;7.00;;;3.70;;
61477;SDS011;47345;52.334;10.392;2023-05-16T00:16:15;4.30;;;3.40;;
61477;SDS011;47345;52.334;10.392;2023-05-16T00:18:48;4.20;;;3.20;;
61477;SDS011;47345;52.334;10.392;2023-05-16T00:21:20;3.70;;;3.10;;
61477;SDS011;47345;52.334;10.392;2023-05-16T00:23:51;6.10;;;3.60;;
61477;SDS011;47345;52.334;10.392;2023-05-16T00:26:22;5.60;;;3.00;;
61477;SDS011;47345;52.334;10.392;2023-05-16T00:28:53;4.00;;;2.70;;
61477;SDS011;47345;52.334;10.392;2023-05-16T00:31:23;3.90;;;2.90;;
61477;SDS011;47345;52.334;10.392;2023-05-16T00:33:54;3.80;;;2.80;;
61477;SDS011;47345;52.334;10.392;2023-05-16T00:36:25;4.10;;;2.60;;
61477;SDS011;47345;52.334;10.392;2023-05-16T00:38:59;3.30;;;2.60;;
61477;SDS011;47345;52.334;10.392;2023-05-16T00:41:32;4.00;;;2.80;;
61477;SDS011;47345;52.334;10.392;2023-05-16T00:44:03;3.20;;;2.20;;
61477;SDS011;47345;52.334;10.392;2023-05-16T00:46:33;4.40;;;2.90;;
61477;SDS011;47345;52.334;10.392;2023-05-16T00:49:04;3.80;;;3.10;;
61477;SDS011;47345;52.334;10.392;2023-05-16T00:51:38;4.10;;;3.00;;
61477;SDS011;47345;52.334;10.392;2023-05-16T00:54:09;4.10;;;2.60;;
61477;SDS011;47345;52.334;10.392;2023-05-16T00:56:40;3.30;;;2.90;;
61477;SDS011;47345;52.334;10.392;2023-05-16T00:59:10;3.90;;;2.70;;
61477;SDS011;47345;52.334;10.392;2023-05-16T01:01:41;3.50;;;2.70;;
61477;SDS011;47345;52.334;10.392;2023-05-16T01:04:14;6.40;;;3.00;;
61477;SDS011;47345;52.334;10.392;2023-05-16T01:06:47;3.90;;;2.90;;
61477;SDS011;47345;52.334;10.392;2023-05-16T01:09:18;6.00;;;2.80;;
61477;SDS011;47345;52.334;10.392;2023-05-16T01:11:51;3.50;;;2.70;;
61477;SDS011;47345;52.334;10.392;2023-05-16T01:14:33;4.20;;;3.10;;
61477;SDS011;47345;52.334;10.392;2023-05-16T01:17:15;3.20;;;2.60;;
61477;SDS011;47345;52.334;10.392;2023-05-16T01:19:58;3.30;;;2.40;;
61477;SDS011;47345;52.334;10.392;2023-05-16T01:22:46;3.30;;;3.00;;
61477;SDS011;47345;52.334;10.392;2023-05-16T01:25:34;3.40;;;3.00;;
61477;SDS011;47345;52.334;10.392;2023-05-16T01:28:14;4.10;;;3.20;;
61477;SDS011;47345;52.334;10.392;2023-05-16T01:30:46;3.00;;;2.50;;
61477;SDS011;47345;52.334;10.392;2023-05-16T01:33:19;4.50;;;2.40;;
61477;SDS011;47345;52.334;10.392;2023-05-16T01:35:52;4.20;;;2.60;;
61477;SDS011;47345;52.334;10.392;2023-05-16T01:38:32;2.60;;;2.30;;
61477;SDS011;47345;52.334;10.392;2023-05-16T01:41:11;2.80;;;2.30;;
61477;SDS011;47345;52.334;10.392;2023-05-16T01:43:50;2.50;;;2.30;;
61477;SDS011;47345;52.334;10.392;2023-05-16T01:46:26;4.30;;;2.80;;
61477;SDS011;47345;52.334;10.392;2023-05-16T01:49:03;2.60;;;2.20;;
61477;SDS011;47345;52.334;10.392;2023-05-16T01:51:46;3.60;;;2.20;;
61477;SDS011;47345;52.334;10.392;2023-05-16T01:54:23;3.00;;;2.30;;
61477;SDS011;47345;52.334;10.392;2023-05-16T01:56:58;3.00;;;2.30;;
61477;SDS011;47345;52.334;10.392;2023-05-16T01:59:32;3.10;;;2.60;;
61477;SDS011;47345;52.334;10.392;2023-05-16T02:02:05;6.40;;;2.50;;
61477;SDS011;47345;52.334;10.392;2023-05-16T02:04:38;6.00;;;2.50;;
61477;SDS011;47345;52.334;10.392;2023-05-16T02:07:09;3.10;;;2.30;;
61477;SDS011;47345;52.334;10.392;2023-05-16T02:09:41;2.50;;;2.30;;
61477;SDS011;47345;52.334;10.392;2023-05-16T02:12:12;2.50;;;2.30;;
61477;SDS011;47345;52.334;10.392;2023-05-16T02:14:44;3.70;;;2.60;;
61477;SDS011;47345;52.334;10.392;2023-05-16T02:17:15;2.90;;;2.40;;
61477;SDS011;47345;52.334;10.392;2023-05-16T02:19:46;2.50;;;2.00;;
61477;SDS011;47345;52.334;10.392;2023-05-16T02:22:16;3.40;;;2.50;;
61477;SDS011;47345;52.334;10.392;2023-05-16T02:24:47;4.30;;;2.40;;
61477;SDS011;47345;52.334;10.392;2023-05-16T02:27:17;3.60;;;2.50;;
61477;SDS011;47345;52.334;10.392;2023-05-16T02:29:48;3.20;;;2.80;;
61477;SDS011;47345;52.334;10.392;2023-05-16T02:32:18;3.90;;;2.70;;
61477;SDS011;47345;52.334;10.392;2023-05-16T02:34:50;2.70;;;2.40;;
61477;SDS011;47345;52.334;10.392;2023-05-16T02:37:20;4.20;;;2.80;;
61477;SDS011;47345;52.334;10.392;2023-05-16T02:39:51;2.80;;;2.30;;
61477;SDS011;47345;52.334;10.392;2023-05-16T02:42:24;3.30;;;2.60;;
61477;SDS011;47345;52.334;10.392;2023-05-16T02:44:57;3.50;;;2.50;;
61477;SDS011;47345;52.334;10.392;2023-05-16T02:47:27;2.30;;;2.10;;
61477;SDS011;47345;52.334;10.392;2023-05-16T02:49:58;4.10;;;2.30;;
61477;SDS011;47345;52.334;10.392;2023-05-16T02:52:30;3.40;;;2.40;;
61477;SDS011;47345;52.334;10.392;2023-05-16T02:55:00;4.20;;;2.50;;
61477;SDS011;47345;52.334;10.392;2023-05-16T02:57:49;4.20;;;2.10;;
61477;SDS011;47345;52.334;10.392;2023-05-16T03:00:20;3.30;;;2.30;;
61477;SDS011;47345;52.334;10.392;2023-05-16T03:02:51;6.50;;;2.30;;
61477;SDS011;47345;52.334;10.392;2023-05-16T03:05:22;2.00;;;1.80;;
61477;SDS011;47345;52.334;10.392;2023-05-16T03:07:54;4.60;;;2.10;;
61477;SDS011;47345;52.334;10.392;2023-05-16T03:10:25;2.20;;;2.00;;
61477;SDS011;47345;52.334;10.392;2023-05-16T03:12:56;3.20;;;2.10;;
61477;SDS011;47345;52.334;10.392;2023-05-16T03:19:01;2.10;;;1.90;;
61477;SDS011;47345;52.334;10.392;2023-05-16T03:21:32;2.20;;;2.00;;
61477;SDS011;47345;52.334;10.392;2023-05-16T03:24:03;2.70;;;2.20;;
61477;SDS011;47345;52.334;10.392;2023-05-16T03:26:34;2.60;;;2.30;;
61477;SDS011;47345;52.334;10.392;2023-05-16T03:29:05;3.20;;;2.40;;
61477;SDS011;47345;52.334;10.392;2023-05-16T03:31:36;5.50;;;2.50;;
61477;SDS011;47345;52.334;10.392;2023-05-16T03:34:09;2.80;;;2.30;;
61477;SDS011;47345;52.334;10.392;2023-05-16T03:36:39;5.60;;;2.60;;
61477;SDS011;47345;52.334;10.392;2023-05-16T03:39:10;2.30;;;2.10;;
61477;SDS011;47345;52.334;10.392;2023-05-16T03:41:41;5.70;;;2.40;;
61477;SDS011;47345;52.334;10.392;2023-05-16T03:44:14;2.80;;;1.90;;
61477;SDS011;47345;52.334;10.392;2023-05-16T03:46:45;2.30;;;2.10;;
61477;SDS011;47345;52.334;10.392;2023-05-16T03:49:23;4.70;;;2.50;;
61477;SDS011;47345;52.334;10.392;2023-05-16T03:51:55;3.60;;;2.20;;
61477;SDS011;47345;52.334;10.392;2023-05-16T03:54:25;4.20;;;2.40;;
61477;SDS011;47345;52.334;10.392;2023-05-16T03:56:56;2.40;;;2.20;;
61477;SDS011;47345;52.334;10.392;2023-05-16T03:59:27;6.10;;;2.50;;
61477;SDS011;47345;52.334;10.392;2023-05-16T04:01:58;4.30;;;2.20;;
61477;SDS011;47345;52.334;10.392;2023-05-16T04:04:29;2.60;;;2.20;;
61477;SDS011;47345;52.334;10.392;2023-05-16T04:07:00;4.00;;;2.20;;
61477;SDS011;47345;52.334;10.392;2023-05-16T04:09:31;3.60;;;2.30;;
61477;SDS011;47345;52.334;10.392;2023-05-16T04:12:01;2.80;;;2.20;;
61477;SDS011;47345;52.334;10.392;2023-05-16T04:14:33;3.90;;;2.50;;
61477;SDS011;47345;52.334;10.392;2023-05-16T04:17:05;3.70;;;2.20;;
61477;SDS011;47345;52.334;10.392;2023-05-16T04:19:40;3.30;;;2.30;;
61477;SDS011;47345;52.334;10.392;2023-05-16T04:22:11;2.10;;;1.80;;
61477;SDS011;47345;52.334;10.392;2023-05-16T04:24:43;2.10;;;1.80;;
61477;SDS011;47345;52.334;10.392;2023-05-16T04:27:15;4.90;;;2.20;;
61477;SDS011;47345;52.334;10.392;2023-05-16T04:29:49;2.00;;;1.80;;
61477;SDS011;47345;52.334;10.392;2023-05-16T04:32:19;2.80;;;2.50;;
61477;SDS011;47345;52.334;10.392;2023-05-16T04:34:51;2.20;;;1.80;;
61477;SDS011;47345;52.334;10.392;2023-05-16T04:37:22;2.00;;;1.80;;
61477;SDS011;47345;52.334;10.392;2023-05-16T04:39:53;3.30;;;2.10;;
61477;SDS011;47345;52.334;10.392;2023-05-16T04:42:23;2.20;;;2.00;;
61477;SDS011;47345;52.334;10.392;2023-05-16T04:44:54;2.10;;;2.00;;
61477;SDS011;47345;52.334;10.392;2023-05-16T04:47:25;2.70;;;1.80;;
61477;SDS011;47345;52.334;10.392;2023-05-16T04:49:56;2.70;;;1.90;;
61477;SDS011;47345;52.334;10.392;2023-05-16T04:52:26;3.90;;;2.20;;
61477;SDS011;47345;52.334;10.392;2023-05-16T04:54:57;6.20;;;2.70;;
61477;SDS011;47345;52.334;10.392;2023-05-16T04:57:28;4.40;;;1.90;;
61477;SDS011;47345;52.334;10.392;2023-05-16T04:59:59;3.70;;;1.70;;
61477;SDS011;47345;52.334;10.392;2023-05-16T05:02:38;3.00;;;1.90;;
61477;SDS011;47345;52.334;10.392;2023-05-16T05:05:10;6.60;;;1.90;;
61477;SDS011;47345;52.334;10.392;2023-05-16T05:07:41;2.80;;;1.40;;
61477;SDS011;47345;52.334;10.392;2023-05-16T05:10:12;2.80;;;1.70;;
61477;SDS011;47345;52.334;10.392;2023-05-16T05:12:43;2.30;;;1.60;;
61477;SDS011;47345;52.334;10.392;2023-05-16T05:15:14;2.00;;;1.60;;
61477;SDS011;47345;52.334;10.392;2023-05-16T05:17:47;3.20;;;1.50;;
61477;SDS011;47345;52.334;10.392;2023-05-16T05:20:18;2.50;;;1.90;;
61477;SDS011;47345;52.334;10.392;2023-05-16T05:22:50;8.00;;;2.30;;
61477;SDS011;47345;52.334;10.392;2023-05-16T05:25:21;3.60;;;1.60;;
61477;SDS011;47345;52.334;10.392;2023-05-16T05:27:52;3.20;;;1.80;;
61477;SDS011;47345;52.334;10.392;2023-05-16T05:30:23;2.50;;;2.00;;
61477;SDS011;47345;52.334;10.392;2023-05-16T05:32:54;2.00;;;1.70;;
61477;SDS011;47345;52.334;10.392;2023-05-16T05:35:25;4.10;;;1.90;;
61477;SDS011;47345;52.334;10.392;2023-05-16T05:37:56;3.10;;;1.90;;
61477;SDS011;47345;52.334;10.392;2023-05-16T05:40:27;2.50;;;1.90;;
61477;SDS011;47345;52.334;10.392;2023-05-16T05:42:58;3.80;;;1.90;;
61477;SDS011;47345;52.334;10.392;2023-05-16T05:45:28;2.70;;;1.80;;
61477;SDS011;47345;52.334;10.392;2023-05-16T05:47:59;4.20;;;1.90;;
61477;SDS011;47345;52.334;10.392;2023-05-16T05:50:31;2.90;;;1.60;;
61477;SDS011;47345;52.334;10.392;2023-05-16T05:53:01;4.50;;;2.00;;
61477;SDS011;47345;52.334;10.392;2023-05-16T05:55:32;3.00;;;1.90;;
61477;SDS011;47345;52.334;10.392;2023-05-16T05:58:03;3.00;;;2.20;;
61477;SDS011;47345;52.334;10.392;2023-05-16T06:00:34;3.80;;;2.20;;
61477;SDS011;47345;52.334;10.392;2023-05-16T06:03:05;5.20;;;2.10;;
61477;SDS011;47345;52.334;10.392;2023-05-16T06:05:36;2.10;;;1.90;;
61477;SDS011;47345;52.334;10.392;2023-05-16T06:08:07;4.90;;;2.30;;
61477;SDS011;47345;52.334;10.392;2023-05-16T06:10:38;2.50;;;1.80;;
61477;SDS011;47345;52.334;10.392;2023-05-16T06:13:09;9.20;;;2.50;;
61477;SDS011;47345;52.334;10.392;2023-05-16T06:15:40;9.40;;;2.70;;
61477;SDS011;47345;52.334;10.392;2023-05-16T06:18:10;3.70;;;2.30;;
61477;SDS011;47345;52.334;10.392;2023-05-16T06:20:42;5.10;;;2.10;;
61477;SDS011;47345;52.334;10.392;2023-05-16T06:23:12;10.90;;;2.70;;
61477;SDS011;47345;52.334;10.392;2023-05-16T06:25:43;4.60;;;2.40;;
61477;SDS011;47345;52.334;10.392;2023-05-16T06:28:14;6.80;;;1.90;;
61477;SDS011;47345;52.334;10.392;2023-05-16T06:30:45;4.30;;;1.80;;
61477;SDS011;47345;52.334;10.392;2023-05-16T06:33:18;8.00;;;2.10;;
61477;SDS011;47345;52.334;10.392;2023-05-16T06:35:49;4.90;;;2.20;;
61477;SDS011;47345;52.334;10.392;2023-05-16T06:38:20;4.60;;;1.90;;
61477;SDS011;47345;52.334;10.392;2023-05-16T06:40:50;6.10;;;1.90;;
61477;SDS011;47345;52.334;10.392;2023-05-16T06:43:21;6.40;;;1.70;;
61477;SDS011;47345;52.334;10.392;2023-05-16T06:45:52;9.80;;;1.80;;
61477;SDS011;47345;52.334;10.392;2023-05-16T06:48:23;6.30;;;2.30;;
61477;SDS011;47345;52.334;10.392;2023-05-16T06:50:56;6.30;;;1.80;;
61477;SDS011;47345;52.334;10.392;2023-05-16T06:53:26;5.60;;;1.90;;
61477;SDS011;47345;52.334;10.392;2023-05-16T06:55:57;9.00;;;1.80;;
61477;SDS011;47345;52.334;10.392;2023-05-16T06:58:28;3.70;;;1.70;;
61477;SDS011;47345;52.334;10.392;2023-05-16T07:01:00;3.60;;;1.50;;
61477;SDS011;47345;52.334;10.392;2023-05-16T07:03:31;4.20;;;1.60;;
61477;SDS011;47345;52.334;10.392;2023-05-16T07:06:02;7.00;;;2.20;;
61477;SDS011;47345;52.334;10.392;2023-05-16T07:08:33;3.10;;;1.50;;
61477;SDS011;47345;52.334;10.392;2023-05-16T07:11:03;10.20;;;1.90;;
61477;SDS011;47345;52.334;10.392;2023-05-16T07:13:34;6.00;;;2.00;;
61477;SDS011;47345;52.334;10.392;2023-05-16T07:16:05;4.60;;;1.80;;
61477;SDS011;47345;52.334;10.392;2023-05-16T07:18:36;3.70;;;1.50;;
61477;SDS011;47345;52.334;10.392;2023-05-16T07:21:07;7.50;;;1.50;;
61477;SDS011;47345;52.334;10.392;2023-05-16T07:23:38;7.80;;;1.80;;
61477;SDS011;47345;52.334;10.392;2023-05-16T07:26:09;5.00;;;2.10;;
61477;SDS011;47345;52.334;10.392;2023-05-16T07:28:40;3.90;;;1.60;;
61477;SDS011;47345;52.334;10.392;2023-05-16T07:31:11;3.30;;;2.10;;
61477;SDS011;47345;52.334;10.392;2023-05-16T07:33:43;4.50;;;1.60;;
61477;SDS011;47345;52.334;10.392;2023-05-16T07:36:17;4.90;;;2.00;;
61477;SDS011;47345;52.334;10.392;2023-05-16T07:38:48;7.30;;;1.60;;
61477;SDS011;47345;52.334;10.392;2023-05-16T07:41:18;5.20;;;1.80;;
61477;SDS011;47345;52.334;10.392;2023-05-16T07:43:49;2.10;;;1.40;;
61477;SDS011;47345;52.334;10.392;2023-05-16T07:46:20;4.50;;;1.80;;
61477;SDS011;47345;52.334;10.392;2023-05-16T07:48:51;6.80;;;1.60;;
61477;SDS011;47345;52.334;10.392;2023-05-16T07:51:22;4.30;;;1.80;;
61477;SDS011;47345;52.334;10.392;2023-05-16T07:53:56;7.20;;;2.40;;
61477;SDS011;47345;52.334;10.392;2023-05-16T07:56:27;4.90;;;2.00;;
61477;SDS011;47345;52.334;10.392;2023-05-16T07:58:58;5.10;;;1.70;;
61477;SDS011;47345;52.334;10.392;2023-05-16T08:01:29;2.80;;;1.50;;
61477;SDS011;47345;52.334;10.392;2023-05-16T08:04:00;7.50;;;2.00;;
61477;SDS011;47345;52.334;10.392;2023-05-16T08:06:30;7.30;;;2.20;;
61477;SDS011;47345;52.334;10.392;2023-05-16T08:09:01;4.00;;;1.40;;
61477;SDS011;47345;52.334;10.392;2023-05-16T08:11:33;2.80;;;1.40;;
61477;SDS011;47345;52.334;10.392;2023-05-16T08:14:04;6.40;;;1.50;;
61477;SDS011;47345;52.334;10.392;2023-05-16T08:16:38;3.60;;;1.80;;
61477;SDS011;47345;52.334;10.392;2023-05-16T08:19:08;2.50;;;1.60;;
61477;SDS011;47345;52.334;10.392;2023-05-16T08:21:39;8.60;;;1.70;;
61477;SDS011;47345;52.334;10.392;2023-05-16T08:24:10;4.40;;;1.70;;
61477;SDS011;47345;52.334;10.392;2023-05-16T08:26:44;4.90;;;1.40;;
61477;SDS011;47345;52.334;10.392;2023-05-16T08:29:15;2.80;;;1.30;;
61477;SDS011;47345;52.334;10.392;2023-05-16T08:31:48;5.00;;;1.70;;
61477;SDS011;47345;52.334;10.392;2023-05-16T08:34:19;4.70;;;1.50;;
61477;SDS011;47345;52.334;10.392;2023-05-16T08:36:49;6.00;;;2.00;;
61477;SDS011;47345;52.334;10.392;2023-05-16T08:39:21;3.70;;;1.50;;
61477;SDS011;47345;52.334;10.392;2023-05-16T08:41:52;3.90;;;1.70;;
61477;SDS011;47345;52.334;10.392;2023-05-16T08:44:23;4.40;;;1.40;;
61477;SDS011;47345;52.334;10.392;2023-05-16T08:46:54;4.40;;;1.10;;
61477;SDS011;47345;52.334;10.392;2023-05-16T08:49:30;3.10;;;1.40;;
61477;SDS011;47345;52.334;10.392;2023-05-16T08:52:05;2.20;;;1.40;;
61477;SDS011;47345;52.334;10.392;2023-05-16T08:54:38;8.00;;;1.80;;
61477;SDS011;47345;52.334;10.392;2023-05-16T08:57:11;3.40;;;1.40;;
61477;SDS011;47345;52.334;10.392;2023-05-16T08:59:46;4.30;;;1.80;;
61477;SDS011;47345;52.334;10.392;2023-05-16T09:02:21;2.80;;;1.60;;
61477;SDS011;47345;52.334;10.392;2023-05-16T09:04:52;3.00;;;1.00;;
61477;SDS011;47345;52.334;10.392;2023-05-16T09:07:25;7.10;;;1.80;;
61477;SDS011;47345;52.334;10.392;2023-05-16T09:09:56;4.30;;;1.40;;
61477;SDS011;47345;52.334;10.392;2023-05-16T09:12:27;2.50;;;1.60;;
61477;SDS011;47345;52.334;10.392;2023-05-16T09:14:58;4.80;;;1.50;;
61477;SDS011;47345;52.334;10.392;2023-05-16T09:17:34;3.40;;;1.50;;
61477;SDS011;47345;52.334;10.392;2023-05-16T09:20:09;2.90;;;1.30;;
61477;SDS011;47345;52.334;10.392;2023-05-16T09:22:50;4.40;;;1.70;;
61477;SDS011;47345;52.334;10.392;2023-05-16T09:25:24;1.80;;;1.10;;
61477;SDS011;47345;52.334;10.392;2023-05-16T09:27:59;3.80;;;1.50;;
61477;SDS011;47345;52.334;10.392;2023-05-16T09:30:31;3.00;;;1.60;;
61477;SDS011;47345;52.334;10.392;2023-05-16T09:33:03;2.80;;;1.40;;
61477;SDS011;47345;52.334;10.392;2023-05-16T09:35:39;2.60;;;1.40;;
61477;SDS011;47345;52.334;10.392;2023-05-16T09:38:15;2.20;;;1.30;;
61477;SDS011;47345;52.334;10.392;2023-05-16T09:40:47;2.60;;;1.50;;
61477;SDS011;47345;52.334;10.392;2023-05-16T09:43:20;4.00;;;1.80;;
61477;SDS011;47345;52.334;10.392;2023-05-16T09:45:53;2.80;;;1.50;;
61477;SDS011;47345;52.334;10.392;2023-05-16T09:48:30;1.90;;;1.40;;
61477;SDS011;47345;52.334;10.392;2023-05-16T09:51:02;2.70;;;1.50;;
61477;SDS011;47345;52.334;10.392;2023-05-16T09:53:34;5.00;;;1.30;;
61477;SDS011;47345;52.334;10.392;2023-05-16T09:56:12;4.70;;;1.40;;
61477;SDS011;47345;52.334;10.392;2023-05-16T09:58:43;2.10;;;1.40;;
61477;SDS011;47345;52.334;10.392;2023-05-16T10:01:14;4.50;;;1.40;;
61477;SDS011;47345;52.334;10.392;2023-05-16T10:03:46;4.50;;;1.40;;
61477;SDS011;47345;52.334;10.392;2023-05-16T10:06:17;3.40;;;1.40;;
61477;SDS011;47345;52.334;10.392;2023-05-16T10:08:48;7.90;;;1.70;;
61477;SDS011;47345;52.334;10.392;2023-05-16T10:11:19;5.70;;;1.50;;
61477;SDS011;47345;52.334;10.392;2023-05-16T10:13:50;2.60;;;1.30;;
61477;SDS011;47345;52.334;10.392;2023-05-16T10:16:21;5.30;;;1.50;;
61477;SDS011;47345;52.334;10.392;2023-05-16T10:18:56;10.70;;;1.70;;
61477;SDS011;47345;52.334;10.392;2023-05-16T10:21:28;2.70;;;1.30;;
61477;SDS011;47345;52.334;10.392;2023-05-16T10:24:02;4.50;;;1.50;;
61477;SDS011;47345;52.334;10.392;2023-05-16T10:26:43;2.90;;;1.30;;
61477;SDS011;47345;52.334;10.392;2023-05-16T10:29:17;2.40;;;1.50;;
61477;SDS011;47345;52.334;10.392;2023-05-16T10:31:49;5.20;;;1.40;;
61477;SDS011;47345;52.334;10.392;2023-05-16T10:34:20;4.70;;;1.40;;
61477;SDS011;47345;52.334;10.392;2023-05-16T10:36:51;3.10;;;1.40;;
61477;SDS011;47345;52.334;10.392;2023-05-16T10:39:23;1.50;;;1.30;;
61477;SDS011;47345;52.334;10.392;2023-05-16T10:41:55;5.40;;;1.60;;
61477;SDS011;47345;52.334;10.392;2023-05-16T10:44:28;5.30;;;1.00;;
61477;SDS011;47345;52.334;10.392;2023-05-16T10:47:02;2.30;;;1.00;;
61477;SDS011;47345;52.334;10.392;2023-05-16T10:49:33;1.90;;;1.10;;
61477;SDS011;47345;52.334;10.392;2023-05-16T10:52:08;3.50;;;1.30;;
61477;SDS011;47345;52.334;10.392;2023-05-16T10:54:40;1.50;;;1.20;;
61477;SDS011;47345;52.334;10.392;2023-05-16T10:57:18;1.30;;;1.00;;
61477;SDS011;47345;52.334;10.392;2023-05-16T10:59:53;2.30;;;1.40;;
61477;SDS011;47345;52.334;10.392;2023-05-16T11:02:29;4.80;;;1.00;;
61477;SDS011;47345;52.334;10.392;2023-05-16T11:05:01;1.80;;;1.20;;
61477;SDS011;47345;52.334;10.392;2023-05-16T11:07:35;3.20;;;1.60;;
61477;SDS011;47345;52.334;10.392;2023-05-16T11:10:06;3.70;;;1.20;;
61477;SDS011;47345;52.334;10.392;2023-05-16T11:12:39;3.20;;;1.30;;
61477;SDS011;47345;52.334;10.392;2023-05-16T11:15:20;1.40;;;1.00;;
61477;SDS011;47345;52.334;10.392;2023-05-16T11:18:03;5.90;;;1.70;;
61477;SDS011;47345;52.334;10.392;2023-05-16T11:20:39;2.10;;;1.10;;
61477;SDS011;47345;52.334;10.392;2023-05-16T11:23:23;3.00;;;1.30;;
61477;SDS011;47345;52.334;10.392;2023-05-16T11:25:56;2.00;;;1.10;;
61477;SDS011;47345;52.334;10.392;2023-05-16T11:28:28;1.50;;;0.90;;
61477;SDS011;47345;52.334;10.392;2023-05-16T11:31:00;4.20;;;1.50;;
61477;SDS011;47345;52.334;10.392;2023-05-16T11:33:32;3.40;;;1.10;;
61477;SDS011;47345;52.334;10.392;2023-05-16T11:36:04;2.10;;;1.00;;
61477;SDS011;47345;52.334;10.392;2023-05-16T11:38:42;2.50;;;1.10;;
61477;SDS011;47345;52.334;10.392;2023-05-16T11:41:13;2.70;;;1.30;;
61477;SDS011;47345;52.334;10.392;2023-05-16T11:43:44;3.60;;;1.30;;
61477;SDS011;47345;52.334;10.392;2023-05-16T11:46:15;1.30;;;1.20;;
61477;SDS011;47345;52.334;10.392;2023-05-16T11:48:46;1.40;;;1.00;;
61477;SDS011;47345;52.334;10.392;2023-05-16T11:51:18;2.40;;;1.10;;
61477;SDS011;47345;52.334;10.392;2023-05-16T11:53:49;2.80;;;1.30;;
61477;SDS011;47345;52.334;10.392;2023-05-16T11:56:21;1.40;;;0.90;;
61477;SDS011;47345;52.334;10.392;2023-05-16T11:58:52;2.00;;;1.10;;
61477;SDS011;47345;52.334;10.392;2023-05-16T12:01:23;2.00;;;1.00;;
61477;SDS011;47345;52.334;10.392;2023-05-16T12:03:55;1.60;;;1.20;;
61477;SDS011;47345;52.334;10.392;2023-05-16T12:06:27;2.20;;;1.10;;
61477;SDS011;47345;52.334;10.392;2023-05-16T12:08:59;1.20;;;1.00;;
61477;SDS011;47345;52.334;10.392;2023-05-16T12:11:37;1.80;;;1.30;;
61477;SDS011;47345;52.334;10.392;2023-05-16T12:14:09;3.30;;;1.30;;
61477;SDS011;47345;52.334;10.392;2023-05-16T12:16:41;2.30;;;1.30;;
61477;SDS011;47345;52.334;10.392;2023-05-16T12:19:13;3.20;;;1.30;;
61477;SDS011;47345;52.334;10.392;2023-05-16T12:21:44;2.60;;;1.20;;
61477;SDS011;47345;52.334;10.392;2023-05-16T12:24:15;1.00;;;1.00;;
61477;SDS011;47345;52.334;10.392;2023-05-16T12:26:47;1.10;;;0.90;;
61477;SDS011;47345;52.334;10.392;2023-05-16T12:29:21;3.10;;;1.20;;
61477;SDS011;47345;52.334;10.392;2023-05-16T12:31:53;2.40;;;0.90;;
61477;SDS011;47345;52.334;10.392;2023-05-16T12:34:27;4.20;;;1.60;;
61477;SDS011;47345;52.334;10.392;2023-05-16T12:36:58;7.90;;;1.90;;
61477;SDS011;47345;52.334;10.392;2023-05-16T12:39:29;1.70;;;1.40;;
61477;SDS011;47345;52.334;10.392;2023-05-16T12:42:08;4.50;;;1.40;;
61477;SDS011;47345;52.334;10.392;2023-05-16T12:44:41;2.30;;;1.20;;
61477;SDS011;47345;52.334;10.392;2023-05-16T12:47:14;1.70;;;0.90;;
61477;SDS011;47345;52.334;10.392;2023-05-16T12:49:45;2.90;;;1.30;;
61477;SDS011;47345;52.334;10.392;2023-05-16T12:52:18;2.30;;;1.20;;
61477;SDS011;47345;52.334;10.392;2023-05-16T12:54:49;2.70;;;1.20;;
61477;SDS011;47345;52.334;10.392;2023-05-16T12:57:20;2.40;;;1.20;;
61477;SDS011;47345;52.334;10.392;2023-05-16T12:59:51;2.30;;;1.10;;
61477;SDS011;47345;52.334;10.392;2023-05-16T13:02:22;2.70;;;1.00;;
61477;SDS011;47345;52.334;10.392;2023-05-16T13:04:53;2.70;;;1.10;;
61477;SDS011;47345;52.334;10.392;2023-05-16T13:07:27;4.40;;;1.30;;
61477;SDS011;47345;52.334;10.392;2023-05-16T13:12:42;7.10;;;1.10;;
61477;SDS011;47345;52.334;10.392;2023-05-16T13:15:14;7.30;;;1.20;;
61477;SDS011;47345;52.334;10.392;2023-05-16T13:17:44;3.70;;;1.20;;
61477;SDS011;47345;52.334;10.392;2023-05-16T13:20:15;2.50;;;1.10;;
61477;SDS011;47345;52.334;10.392;2023-05-16T13:22:48;2.50;;;1.00;;
61477;SDS011;47345;52.334;10.392;2023-05-16T13:25:18;3.30;;;1.50;;
61477;SDS011;47345;52.334;10.392;2023-05-16T13:27:51;2.60;;;1.10;;
61477;SDS011;47345;52.334;10.392;2023-05-16T13:30:23;2.30;;;1.10;;
61477;SDS011;47345;52.334;10.392;2023-05-16T13:32:54;2.30;;;1.20;;
61477;SDS011;47345;52.334;10.392;2023-05-16T13:35:26;2.20;;;1.30;;
61477;SDS011;47345;52.334;10.392;2023-05-16T13:37:57;2.70;;;1.30;;
61477;SDS011;47345;52.334;10.392;2023-05-16T13:40:28;2.20;;;1.50;;
61477;SDS011;47345;52.334;10.392;2023-05-16T13:42:59;1.00;;;0.90;;
61477;SDS011;47345;52.334;10.392;2023-05-16T13:45:31;1.80;;;1.20;;
61477;SDS011;47345;52.334;10.392;2023-05-16T13:48:02;3.60;;;1.40;;
61477;SDS011;47345;52.334;10.392;2023-05-16T13:50:34;4.80;;;1.40;;
61477;SDS011;47345;52.334;10.392;2023-05-16T13:53:11;1.40;;;1.20;;
61477;SDS011;47345;52.334;10.392;2023-05-16T13:55:42;2.00;;;1.30;;
61477;SDS011;47345;52.334;10.392;2023-05-16T13:58:14;1.90;;;1.00;;
61477;SDS011;47345;52.334;10.392;2023-05-16T14:00:44;2.80;;;1.20;;
61477;SDS011;47345;52.334;10.392;2023-05-16T14:03:16;1.90;;;1.10;;
61477;SDS011;47345;52.334;10.392;2023-05-16T14:05:49;2.50;;;1.10;;
61477;SDS011;47345;52.334;10.392;2023-05-16T14:08:21;1.00;;;0.90;;
61477;SDS011;47345;52.334;10.392;2023-05-16T14:10:52;4.10;;;1.00;;
61477;SDS011;47345;52.334;10.392;2023-05-16T14:13:22;2.30;;;0.90;;
61477;SDS011;47345;52.334;10.392;2023-05-16T14:15:53;1.30;;;1.00;;
61477;SDS011;47345;52.334;10.392;2023-05-16T14:18:24;4.80;;;0.90;;
61477;SDS011;47345;52.334;10.392;2023-05-16T14:20:55;0.90;;;0.90;;
61477;SDS011;47345;52.334;10.392;2023-05-16T14:23:26;1.50;;;1.20;;
61477;SDS011;47345;52.334;10.392;2023-05-16T14:25:56;1.30;;;0.90;;
61477;SDS011;47345;52.334;10.392;2023-05-16T14:28:31;2.50;;;1.00;;
61477;SDS011;47345;52.334;10.392;2023-05-16T14:31:01;1.70;;;1.10;;
61477;SDS011;47345;52.334;10.392;2023-05-16T14:33:32;2.10;;;1.40;;
61477;SDS011;47345;52.334;10.392;2023-05-16T14:36:03;2.40;;;1.10;;
61477;SDS011;47345;52.334;10.392;2023-05-16T14:38:35;2.80;;;0.90;;
61477;SDS011;47345;52.334;10.392;2023-05-16T14:41:06;1.00;;;0.80;;
61477;SDS011;47345;52.334;10.392;2023-05-16T14:43:37;3.70;;;1.00;;
61477;SDS011;47345;52.334;10.392;2023-05-16T14:46:07;1.70;;;1.10;;
61477;SDS011;47345;52.334;10.392;2023-05-16T14:48:42;1.20;;;0.90;;
61477;SDS011;47345;52.334;10.392;2023-05-16T14:51:13;3.40;;;0.90;;
61477;SDS011;47345;52.334;10.392;2023-05-16T14:53:43;0.90;;;0.80;;
61477;SDS011;47345;52.334;10.392;2023-05-16T14:56:14;2.40;;;1.00;;
61477;SDS011;47345;52.334;10.392;2023-05-16T14:58:46;2.50;;;1.10;;
61477;SDS011;47345;52.334;10.392;2023-05-16T15:01:17;4.90;;;1.10;;
61477;SDS011;47345;52.334;10.392;2023-05-16T15:03:54;1.30;;;1.00;;
61477;SDS011;47345;52.334;10.392;2023-05-16T15:06:26;2.70;;;1.40;;
61477;SDS011;47345;52.334;10.392;2023-05-16T15:08:59;1.20;;;1.00;;